createdAt,value
2019-02-25T00:01:28.325Z,-2.40
2019-02-25T00:03:58.769Z,-2.40
2019-02-25T00:06:29.216Z,-2.30
2019-02-25T00:08:59.307Z,-2.30
2019-02-25T00:11:29.604Z,-2.30
2019-02-25T00:14:00.047Z,-2.30
2019-02-25T00:16:30.277Z,-2.30
2019-02-25T00:19:00.756Z,-2.30
2019-02-25T00:21:31.044Z,-2.40
2019-02-25T00:24:01.198Z,-2.40
2019-02-25T00:26:32.940Z,-2.50
2019-02-25T00:29:03.057Z,-2.50
2019-02-25T00:31:33.910Z,-2.50
2019-02-25T00:34:04.191Z,-2.60
2019-02-25T00:36:34.319Z,-2.60
2019-02-25T00:39:06.590Z,-2.60
2019-02-25T00:41:37.072Z,-2.60
2019-02-25T00:44:08.946Z,-2.50
2019-02-25T00:46:40.332Z,-2.50
2019-02-25T00:49:11.533Z,-2.60
2019-02-25T00:51:42.017Z,-2.60
2019-02-25T00:54:12.391Z,-2.70
2019-02-25T00:56:44.171Z,-2.70
2019-02-25T00:59:14.409Z,-2.60
2019-02-25T01:01:44.838Z,-2.70
2019-02-25T01:04:15.002Z,-2.70
2019-02-25T01:06:45.350Z,-2.80
2019-02-25T01:09:15.664Z,-2.80
2019-02-25T01:11:47.695Z,-2.70
2019-02-25T01:14:17.867Z,-2.70
2019-02-25T01:16:48.339Z,-2.70
2019-02-25T01:19:18.745Z,-2.70
2019-02-25T01:21:52.009Z,-2.70
2019-02-25T01:24:22.637Z,-2.70
2019-02-25T01:26:53.035Z,-2.80
2019-02-25T01:29:23.183Z,-2.70
2019-02-25T01:31:53.698Z,-2.70
2019-02-25T01:34:23.972Z,-2.70
2019-02-25T01:36:54.166Z,-2.80
2019-02-25T01:39:24.568Z,-2.90
2019-02-25T01:41:54.783Z,-3.00
2019-02-25T01:44:24.899Z,-3.00
2019-02-25T01:46:55.096Z,-3.00
2019-02-25T01:49:25.254Z,-2.90
2019-02-25T01:51:55.695Z,-2.90
2019-02-25T01:54:33.244Z,-2.90
2019-02-25T01:57:08.682Z,-2.90
2019-02-25T01:59:39.211Z,-2.80
2019-02-25T02:02:09.684Z,-2.30
2019-02-25T02:04:39.764Z,-1.90
2019-02-25T02:07:09.952Z,-1.70
2019-02-25T02:09:40.154Z,-1.70
2019-02-25T02:12:10.331Z,-1.50
2019-02-25T02:14:40.718Z,-1.00
2019-02-25T02:17:12.164Z,-0.80
2019-02-25T02:19:42.331Z,-0.70
2019-02-25T02:22:12.691Z,-0.70
2019-02-25T02:24:43.902Z,-0.70
2019-02-25T02:27:15.960Z,-0.90
2019-02-25T02:29:45.905Z,-1.00
2019-02-25T02:32:16.105Z,-1.10
2019-02-25T02:34:46.226Z,-1.40
2019-02-25T02:37:17.028Z,-1.20
2019-02-25T02:39:47.151Z,-1.30
2019-02-25T02:42:22.804Z,-1.70
2019-02-25T02:45:10.518Z,-2.00
2019-02-25T02:47:53.551Z,-2.10
2019-02-25T02:50:25.476Z,-2.10
2019-02-25T02:52:55.889Z,-1.90
2019-02-25T02:55:26.118Z,-2.10
2019-02-25T02:57:56.218Z,-2.30
2019-02-25T03:00:26.747Z,-2.40
2019-02-25T03:02:56.968Z,-2.60
2019-02-25T03:05:27.099Z,-2.90
2019-02-25T03:07:57.304Z,-3.00
2019-02-25T03:10:27.444Z,-3.10
2019-02-25T03:12:57.766Z,-3.00
2019-02-25T03:15:28.197Z,-3.10
2019-02-25T03:17:58.430Z,-3.00
2019-02-25T03:20:28.629Z,-3.00
2019-02-25T03:22:58.981Z,-3.00
2019-02-25T03:25:29.197Z,-3.00
2019-02-25T03:27:59.405Z,-3.10
2019-02-25T03:30:29.489Z,-3.20
2019-02-25T03:32:59.752Z,-3.20
2019-02-25T03:35:30.298Z,-3.20
2019-02-25T03:38:00.422Z,-3.20
2019-02-25T03:40:30.529Z,-3.20
2019-02-25T03:43:00.716Z,-3.30
2019-02-25T03:45:31.277Z,-3.30
2019-02-25T03:48:02.879Z,-3.30
2019-02-25T03:50:33.521Z,-3.40
2019-02-25T03:53:03.799Z,-3.40
2019-02-25T03:55:34.198Z,-3.40
2019-02-25T03:58:04.334Z,-3.50
2019-02-25T04:00:34.523Z,-3.70
2019-02-25T04:03:04.830Z,-3.60
2019-02-25T04:05:35.207Z,-3.70
2019-02-25T04:08:06.620Z,-3.60
2019-02-25T04:10:36.810Z,-3.60
2019-02-25T04:13:07.204Z,-3.80
2019-02-25T04:15:41.012Z,-4.00
2019-02-25T04:18:11.394Z,-3.90
2019-02-25T04:20:41.559Z,-3.80
2019-02-25T04:23:11.804Z,-3.80
2019-02-25T04:25:41.942Z,-3.90
2019-02-25T04:28:12.380Z,-3.90
2019-02-25T04:30:42.608Z,-3.90
2019-02-25T04:33:12.741Z,-3.90
2019-02-25T04:35:42.863Z,-3.80
2019-02-25T04:38:12.932Z,-3.70
2019-02-25T04:40:43.401Z,-3.60
2019-02-25T04:43:13.644Z,-3.60
2019-02-25T04:45:43.745Z,-3.70
2019-02-25T04:48:13.928Z,-3.80
2019-02-25T04:50:44.092Z,-4.00
2019-02-25T04:53:14.557Z,-4.10
2019-02-25T04:55:44.632Z,-4.10
2019-02-25T04:58:14.815Z,-4.00
2019-02-25T05:00:44.909Z,-3.90
2019-02-25T05:03:15.094Z,-3.90
2019-02-25T05:05:45.589Z,-3.90
2019-02-25T05:08:17.011Z,-3.90
2019-02-25T05:10:47.131Z,-4.00
2019-02-25T05:13:17.297Z,-4.00
2019-02-25T05:15:47.740Z,-4.00
2019-02-25T05:18:18.142Z,-4.20
2019-02-25T05:20:48.368Z,-4.20
2019-02-25T05:23:18.833Z,-4.30
2019-02-25T05:25:48.905Z,-4.30
2019-02-25T05:28:18.961Z,-4.40
2019-02-25T05:30:49.147Z,-4.50
2019-02-25T05:33:19.290Z,-4.60
2019-02-25T05:35:49.693Z,-4.60
2019-02-25T05:38:20.016Z,-4.60
2019-02-25T05:40:50.389Z,-4.40
2019-02-25T05:43:20.773Z,-4.20
2019-02-25T05:45:51.034Z,-4.20
2019-02-25T05:48:21.223Z,-4.10
2019-02-25T05:50:51.317Z,-4.20
2019-02-25T05:53:21.770Z,-4.10
2019-02-25T05:55:51.892Z,-4.10
2019-02-25T05:58:22.036Z,-4.20
2019-02-25T06:00:52.277Z,-4.10
2019-02-25T06:03:22.765Z,-4.30
2019-02-25T06:05:53.015Z,-4.40
2019-02-25T06:08:23.115Z,-4.30
2019-02-25T06:10:53.350Z,-4.10
2019-02-25T06:13:23.860Z,-3.90
2019-02-25T06:15:55.662Z,-3.70
2019-02-25T06:18:26.164Z,-3.60
2019-02-25T06:20:56.554Z,-3.60
2019-02-25T06:23:28.154Z,-3.60
2019-02-25T06:25:59.678Z,-3.50
2019-02-25T06:28:31.119Z,-3.50
2019-02-25T06:31:01.288Z,-3.40
2019-02-25T06:33:31.482Z,-3.40
2019-02-25T06:36:01.909Z,-3.30
2019-02-25T06:38:32.032Z,-3.30
2019-02-25T06:41:02.231Z,-3.30
2019-02-25T06:43:32.493Z,-3.30
2019-02-25T06:46:03.022Z,-3.40
2019-02-25T06:48:33.143Z,-3.30
2019-02-25T06:51:03.413Z,-3.10
2019-02-25T06:53:33.609Z,-3.10
2019-02-25T06:56:04.017Z,-3.00
2019-02-25T06:58:34.145Z,-2.90
2019-02-25T07:01:05.561Z,-2.80
2019-02-25T07:03:35.948Z,-2.60
2019-02-25T07:06:29.212Z,-2.50
2019-02-25T07:09:28.210Z,-2.40
2019-02-25T07:12:25.207Z,-2.30
2019-02-25T07:15:32.548Z,-2.40
2019-02-25T07:18:13.244Z,-2.50
2019-02-25T07:20:53.248Z,-2.50
2019-02-25T07:23:50.683Z,-2.40
2019-02-25T07:26:42.529Z,-2.20
2019-02-25T07:29:20.473Z,-1.90
2019-02-25T07:32:24.691Z,-1.70
2019-02-25T07:35:19.911Z,-1.60
2019-02-25T07:38:00.992Z,-1.50
2019-02-25T07:40:57.220Z,-1.40
2019-02-25T07:43:52.669Z,-1.30
2019-02-25T07:46:38.941Z,-1.00
2019-02-25T07:49:28.323Z,-0.40
2019-02-25T07:52:20.253Z,-0.20
2019-02-25T07:55:12.415Z,0.10
2019-02-25T07:58:04.667Z,0.20
2019-02-25T08:00:42.821Z,0.30
2019-02-25T08:03:21.641Z,0.40
2019-02-25T08:06:14.180Z,0.50
2019-02-25T08:09:18.488Z,0.60
2019-02-25T08:12:11.393Z,0.80
2019-02-25T08:14:48.747Z,0.90
2019-02-25T08:17:47.228Z,1.00
2019-02-25T08:20:48.426Z,1.10
2019-02-25T08:23:43.794Z,1.30
2019-02-25T08:26:27.228Z,1.40
2019-02-25T08:29:15.113Z,1.40
2019-02-25T08:32:13.620Z,1.70
2019-02-25T08:35:05.562Z,1.60
2019-02-25T08:38:02.596Z,1.70
2019-02-25T08:41:05.770Z,1.90
2019-02-25T08:43:53.305Z,2.10
2019-02-25T08:46:42.741Z,2.20
2019-02-25T08:49:15.999Z,2.70
2019-02-25T08:51:46.248Z,2.70
2019-02-25T08:54:16.785Z,2.60
2019-02-25T08:56:46.935Z,2.60
2019-02-25T08:59:17.197Z,2.70
2019-02-25T09:01:47.586Z,2.90
2019-02-25T09:04:17.664Z,2.90
2019-02-25T09:06:47.789Z,3.10
2019-02-25T09:09:18.019Z,3.10
2019-02-25T09:11:48.202Z,3.30
2019-02-25T09:14:19.330Z,3.30
2019-02-25T09:16:49.763Z,3.30
2019-02-25T09:19:20.083Z,3.60
2019-02-25T09:21:50.465Z,3.70
2019-02-25T09:24:22.110Z,4.00
2019-02-25T09:26:52.552Z,4.40
2019-02-25T09:29:22.943Z,4.40
2019-02-25T09:31:53.311Z,4.60
2019-02-25T09:34:23.430Z,4.60
2019-02-25T09:36:53.795Z,4.70
2019-02-25T09:39:24.007Z,4.70
2019-02-25T09:41:54.136Z,4.70
2019-02-25T09:44:24.397Z,5.00
2019-02-25T09:46:54.791Z,4.90
2019-02-25T09:49:24.883Z,4.90
2019-02-25T09:51:55.101Z,4.80
2019-02-25T09:54:25.247Z,4.90
2019-02-25T09:56:55.491Z,5.00
2019-02-25T09:59:27.898Z,5.20
2019-02-25T10:01:58.039Z,5.50
2019-02-25T10:04:28.351Z,5.50
2019-02-25T10:07:02.268Z,5.60
2019-02-25T10:09:32.439Z,5.70
2019-02-25T10:12:02.391Z,5.60
2019-02-25T10:14:32.854Z,5.90
2019-02-25T10:17:03.033Z,6.00
2019-02-25T10:19:34.757Z,6.00
2019-02-25T10:22:05.049Z,6.00
2019-02-25T10:24:35.144Z,6.00
2019-02-25T10:27:06.789Z,6.30
2019-02-25T10:29:37.091Z,6.30
2019-02-25T10:32:08.334Z,6.50
2019-02-25T10:34:38.561Z,6.70
2019-02-25T10:37:12.690Z,6.90
2019-02-25T10:39:43.354Z,7.10
2019-02-25T10:42:15.036Z,7.20
2019-02-25T10:44:45.275Z,7.40
2019-02-25T10:47:17.304Z,7.60
2019-02-25T10:49:47.269Z,7.80
2019-02-25T10:52:17.461Z,7.70
2019-02-25T10:54:49.963Z,7.90
2019-02-25T10:57:24.568Z,8.20
2019-02-25T10:59:55.103Z,8.40
2019-02-25T11:02:25.330Z,8.70
2019-02-25T11:04:55.992Z,8.80
2019-02-25T11:07:28.374Z,9.20
2019-02-25T11:10:13.984Z,9.60
2019-02-25T11:12:45.555Z,10.30
2019-02-25T11:15:15.990Z,9.70
2019-02-25T11:17:47.681Z,9.60
2019-02-25T11:20:18.237Z,9.50
2019-02-25T11:22:48.579Z,9.80
2019-02-25T11:25:19.381Z,9.60
2019-02-25T11:27:50.775Z,10.30
2019-02-25T11:30:23.695Z,10.60
2019-02-25T11:32:55.586Z,10.50
2019-02-25T11:35:25.235Z,11.00
2019-02-25T11:37:57.061Z,10.70
2019-02-25T11:40:28.953Z,10.70
2019-02-25T11:42:59.239Z,10.80
2019-02-25T11:45:29.275Z,11.00
2019-02-25T11:47:59.568Z,10.80
2019-02-25T11:50:29.826Z,11.60
2019-02-25T11:52:59.911Z,12.20
2019-02-25T11:55:30.351Z,11.80
2019-02-25T11:58:00.491Z,11.60
2019-02-25T12:00:30.521Z,11.30
2019-02-25T12:03:00.731Z,11.10
2019-02-25T12:05:30.989Z,12.10
2019-02-25T12:08:01.404Z,11.80
2019-02-25T12:10:31.559Z,12.60
2019-02-25T12:13:01.755Z,12.30
2019-02-25T12:15:31.841Z,12.10
2019-02-25T12:18:02.017Z,12.10
2019-02-25T12:20:32.447Z,12.30
2019-02-25T12:23:02.575Z,12.10
2019-02-25T12:25:32.762Z,12.80
2019-02-25T12:28:02.885Z,12.50
2019-02-25T12:30:32.927Z,13.50
2019-02-25T12:33:03.119Z,13.90
2019-02-25T12:35:33.488Z,14.30
2019-02-25T12:38:03.574Z,13.70
2019-02-25T12:40:33.691Z,13.60
2019-02-25T12:43:03.935Z,13.80
2019-02-25T12:45:34.021Z,14.10
2019-02-25T12:48:04.114Z,13.90
2019-02-25T12:50:34.665Z,14.30
2019-02-25T12:53:04.867Z,14.20
2019-02-25T12:55:35.049Z,15.20
2019-02-25T12:58:06.566Z,14.30
2019-02-25T13:00:36.697Z,14.30
2019-02-25T13:03:06.818Z,14.80
2019-02-25T13:05:36.937Z,15.50
2019-02-25T13:08:07.018Z,15.90
2019-02-25T13:10:37.271Z,16.60
2019-02-25T13:13:08.725Z,16.00
2019-02-25T13:15:39.008Z,15.90
2019-02-25T13:18:09.168Z,15.70
2019-02-25T13:20:39.313Z,15.30
2019-02-25T13:23:09.751Z,16.00
2019-02-25T13:25:39.967Z,15.90
2019-02-25T13:28:10.182Z,16.20
2019-02-25T13:30:41.637Z,15.30
2019-02-25T13:33:12.191Z,15.70
2019-02-25T13:35:42.622Z,16.40
2019-02-25T13:38:12.908Z,16.40
2019-02-25T13:40:43.171Z,17.20
2019-02-25T13:43:16.249Z,17.20
2019-02-25T13:45:51.733Z,17.80
2019-02-25T13:48:23.675Z,18.10
2019-02-25T13:50:54.929Z,17.70
2019-02-25T13:53:25.645Z,17.60
2019-02-25T13:55:55.915Z,18.10
2019-02-25T13:58:26.073Z,17.80
2019-02-25T14:00:56.394Z,18.30
2019-02-25T14:03:26.964Z,18.60
2019-02-25T14:05:57.206Z,18.10
2019-02-25T14:08:27.963Z,18.80
2019-02-25T14:11:04.395Z,18.70
2019-02-25T14:13:34.855Z,18.90
2019-02-25T14:16:05.428Z,18.80
2019-02-25T14:18:35.999Z,18.50
2019-02-25T14:21:06.490Z,18.20
2019-02-25T14:23:38.254Z,19.30
2019-02-25T14:26:09.344Z,19.50
2019-02-25T14:28:39.657Z,19.00
2019-02-25T14:31:12.829Z,19.90
2019-02-25T14:33:44.825Z,19.50
2019-02-25T14:36:16.452Z,18.70
2019-02-25T14:38:46.676Z,18.50
2019-02-25T14:41:18.542Z,18.50
2019-02-25T14:43:51.052Z,19.30
2019-02-25T14:46:22.596Z,19.60
2019-02-25T14:48:53.364Z,20.90
2019-02-25T14:51:23.653Z,19.90
2019-02-25T14:53:55.007Z,19.70
2019-02-25T14:56:25.740Z,19.00
2019-02-25T14:58:56.208Z,18.30
2019-02-25T15:01:27.540Z,18.50
2019-02-25T15:04:00.126Z,18.50
2019-02-25T15:06:30.905Z,18.80
2019-02-25T15:09:03.966Z,17.90
2019-02-25T15:11:35.891Z,17.90
2019-02-25T15:14:08.120Z,18.70
2019-02-25T15:16:39.226Z,19.40
2019-02-25T15:19:09.565Z,19.70
2019-02-25T15:21:42.988Z,20.10
2019-02-25T15:24:12.713Z,19.60
2019-02-25T15:26:43.960Z,19.50
2019-02-25T15:29:14.381Z,19.00
2019-02-25T15:31:46.310Z,19.30
2019-02-25T15:34:17.239Z,18.70
2019-02-25T15:36:48.431Z,18.40
2019-02-25T15:39:18.694Z,17.80
2019-02-25T15:41:50.482Z,17.50
2019-02-25T15:44:20.839Z,17.40
2019-02-25T15:46:51.419Z,17.40
2019-02-25T15:49:22.280Z,17.90
2019-02-25T15:51:53.476Z,18.20
2019-02-25T15:54:23.733Z,17.80
2019-02-25T15:56:53.994Z,17.20
2019-02-25T15:59:31.926Z,17.00
2019-02-25T16:01:56.440Z,17.10
2019-02-25T16:04:27.946Z,17.00
2019-02-25T16:07:00.004Z,17.00
2019-02-25T16:09:33.631Z,16.70
2019-02-25T16:12:05.425Z,16.40
2019-02-25T16:14:38.868Z,16.40
2019-02-25T16:17:09.718Z,16.20
2019-02-25T16:19:47.138Z,15.90
2019-02-25T16:22:11.930Z,15.50
2019-02-25T16:24:43.663Z,15.40
2019-02-25T16:27:18.947Z,15.20
2019-02-25T16:29:49.869Z,15.00
2019-02-25T16:32:21.444Z,14.90
2019-02-25T16:34:51.941Z,14.90
2019-02-25T16:37:24.977Z,14.80
2019-02-25T16:39:55.886Z,14.50
2019-02-25T16:42:26.268Z,14.30
2019-02-25T16:45:01.132Z,14.10
2019-02-25T16:47:32.859Z,13.90
2019-02-25T16:50:03.744Z,13.40
2019-02-25T16:52:36.490Z,12.90
2019-02-25T16:55:08.329Z,12.90
2019-02-25T16:57:39.189Z,12.50
2019-02-25T17:00:15.567Z,12.00
2019-02-25T17:02:47.751Z,11.60
2019-02-25T17:05:19.379Z,11.50
2019-02-25T17:07:49.852Z,11.50
2019-02-25T17:10:24.145Z,11.20
2019-02-25T17:12:54.323Z,11.00
2019-02-25T17:15:26.984Z,11.00
2019-02-25T17:17:59.200Z,10.90
2019-02-25T17:20:28.750Z,10.60
2019-02-25T17:22:59.816Z,10.50
2019-02-25T17:25:31.720Z,10.20
2019-02-25T17:28:02.842Z,9.80
2019-02-25T17:30:34.699Z,9.50
2019-02-25T17:33:08.045Z,9.20
2019-02-25T17:35:39.145Z,9.00
2019-02-25T17:38:10.073Z,8.90
2019-02-25T17:40:40.573Z,9.00
2019-02-25T17:43:11.731Z,8.90
2019-02-25T17:45:43.108Z,8.70
2019-02-25T17:48:14.139Z,8.50
2019-02-25T17:50:45.311Z,8.30
2019-02-25T17:53:15.980Z,8.10
2019-02-25T17:55:46.891Z,8.00
2019-02-25T17:58:19.790Z,7.80
2019-02-25T18:00:51.331Z,7.60
2019-02-25T18:03:22.111Z,7.40
2019-02-25T18:05:56.306Z,7.40
2019-02-25T18:08:28.076Z,7.30
2019-02-25T18:11:00.663Z,7.40
2019-02-25T18:13:32.891Z,7.30
2019-02-25T18:16:03.258Z,7.30
2019-02-25T18:18:33.562Z,7.20
2019-02-25T18:21:06.384Z,7.10
2019-02-25T18:23:36.319Z,7.00
2019-02-25T18:26:07.896Z,6.90
2019-02-25T18:28:39.715Z,6.80
2019-02-25T18:31:11.834Z,6.80
2019-02-25T18:33:46.244Z,6.70
2019-02-25T18:36:16.248Z,6.50
2019-02-25T18:38:48.367Z,6.30
2019-02-25T18:41:18.422Z,6.10
2019-02-25T18:43:51.318Z,6.10
2019-02-25T18:46:21.228Z,6.10
2019-02-25T18:48:53.601Z,6.00
2019-02-25T18:51:24.653Z,5.90
2019-02-25T18:53:57.618Z,5.90
2019-02-25T18:56:28.418Z,5.70
2019-02-25T18:59:08.765Z,5.40
2019-02-25T19:01:31.065Z,5.20
2019-02-25T19:04:01.578Z,5.20
2019-02-25T19:06:33.344Z,5.20
2019-02-25T19:09:05.740Z,5.20
2019-02-25T19:11:36.357Z,5.20
2019-02-25T19:14:07.902Z,5.10
2019-02-25T19:16:39.660Z,5.00
2019-02-25T19:19:12.538Z,4.80
2019-02-25T19:21:42.947Z,4.60
2019-02-25T19:24:14.384Z,4.40
2019-02-25T19:26:46.931Z,4.30
2019-02-25T19:29:17.844Z,4.20
2019-02-25T19:31:51.190Z,4.20
2019-02-25T19:34:21.649Z,4.10
2019-02-25T19:36:52.128Z,4.10
2019-02-25T19:39:22.885Z,4.10
2019-02-25T19:41:56.357Z,3.90
2019-02-25T19:44:27.776Z,3.80
2019-02-25T19:46:58.534Z,3.70
2019-02-25T19:49:28.866Z,3.70
2019-02-25T19:51:59.409Z,3.70
2019-02-25T19:54:33.746Z,3.70
2019-02-25T19:57:01.604Z,3.70
2019-02-25T19:59:31.880Z,3.50
2019-02-25T20:02:02.318Z,3.30
2019-02-25T20:04:35.474Z,3.20
2019-02-25T20:07:04.659Z,3.10
2019-02-25T20:09:34.932Z,3.10
2019-02-25T20:12:05.410Z,3.00
2019-02-25T20:14:38.514Z,3.10
2019-02-25T20:17:08.986Z,3.00
2019-02-25T20:19:41.284Z,2.90
2019-02-25T20:22:12.444Z,2.90
2019-02-25T20:24:46.029Z,2.90
2019-02-25T20:27:15.666Z,2.80
2019-02-25T20:29:47.914Z,2.70
2019-02-25T20:32:20.640Z,2.70
2019-02-25T20:34:52.347Z,2.80
2019-02-25T20:37:23.374Z,2.90
2019-02-25T20:39:56.181Z,3.10
2019-02-25T20:42:30.234Z,3.10
2019-02-25T20:45:02.663Z,3.00
2019-02-25T20:47:32.803Z,3.00
2019-02-25T20:50:05.396Z,3.00
2019-02-25T20:52:38.158Z,3.00
2019-02-25T20:55:17.395Z,3.10
2019-02-25T20:57:48.801Z,3.10
2019-02-25T21:00:20.018Z,3.00
2019-02-25T21:02:50.959Z,2.90
2019-02-25T21:05:22.784Z,2.80
2019-02-25T21:07:55.480Z,2.70
2019-02-25T21:10:32.672Z,2.60
2019-02-25T21:13:02.210Z,2.50
2019-02-25T21:15:35.845Z,2.40
2019-02-25T21:18:07.696Z,2.20
2019-02-25T21:20:38.405Z,1.90
2019-02-25T21:23:10.689Z,1.60
2019-02-25T21:25:40.857Z,1.50
2019-02-25T21:28:11.396Z,1.40
2019-02-25T21:30:44.137Z,1.30
2019-02-25T21:33:17.395Z,1.20
2019-02-25T21:35:45.918Z,1.20
2019-02-25T21:38:16.217Z,1.30
2019-02-25T21:40:48.350Z,1.20
2019-02-25T21:43:21.110Z,1.20
2019-02-25T21:45:52.581Z,1.20
2019-02-25T21:48:25.651Z,1.20
2019-02-25T21:50:58.098Z,1.20
2019-02-25T21:53:28.281Z,1.20
2019-02-25T21:56:04.249Z,1.20
2019-02-25T21:58:31.829Z,1.10
2019-02-25T22:01:03.735Z,1.00
2019-02-25T22:03:37.136Z,1.00
2019-02-25T22:06:06.910Z,1.10
2019-02-25T22:08:37.099Z,1.10
2019-02-25T22:11:14.794Z,1.00
2019-02-25T22:13:40.941Z,1.00
2019-02-25T22:16:11.303Z,1.10
2019-02-25T22:18:41.748Z,1.20
2019-02-25T22:21:14.138Z,1.20
2019-02-25T22:23:44.076Z,1.30
2019-02-25T22:26:15.791Z,1.20
2019-02-25T22:28:50.578Z,1.30
2019-02-25T22:31:21.141Z,1.40
2019-02-25T22:33:51.413Z,1.50
2019-02-25T22:36:24.882Z,1.60
2019-02-25T22:38:57.209Z,1.70
2019-02-25T22:41:28.451Z,1.70
2019-02-25T22:44:02.105Z,1.70
2019-02-25T22:46:36.828Z,1.60
2019-02-25T22:49:06.794Z,1.40
2019-02-25T22:51:37.427Z,1.20
2019-02-25T22:54:10.132Z,1.20
2019-02-25T22:56:41.451Z,1.10
2019-02-25T22:59:11.624Z,1.10
2019-02-25T23:01:41.777Z,1.10
2019-02-25T23:04:13.400Z,1.10
2019-02-25T23:06:46.285Z,1.00
2019-02-25T23:09:16.486Z,1.10
2019-02-25T23:11:48.763Z,1.00
2019-02-25T23:14:20.227Z,1.00
2019-02-25T23:16:50.439Z,1.00
2019-02-25T23:19:22.435Z,0.90
2019-02-25T23:21:52.444Z,0.90
2019-02-25T23:24:26.048Z,0.70
2019-02-25T23:26:55.179Z,0.70
2019-02-25T23:29:28.526Z,0.70
2019-02-25T23:32:01.762Z,0.50
2019-02-25T23:34:30.620Z,0.50
2019-02-25T23:37:00.824Z,0.40
2019-02-25T23:39:32.325Z,0.30
2019-02-25T23:42:06.802Z,0.30
2019-02-25T23:44:35.502Z,0.30
2019-02-25T23:47:07.137Z,0.20
2019-02-25T23:49:39.044Z,0.10
2019-02-25T23:52:09.423Z,0.20
2019-02-25T23:54:43.363Z,0.10
2019-02-25T23:57:14.740Z,0.00
2019-02-25T23:59:46.492Z,-0.10
